sensor_id;sensor_type;location;lat;lon;timestamp;P1;durP1;ratioP1;P2;durP2;ratioP2
5491;SDS011;2768;53.540;10.224;2024-03-22T00:03:59;13.77;;;9.23;;
5491;SDS011;2768;53.540;10.224;2024-03-22T00:09:51;12.67;;;9.17;;
5491;SDS011;2768;53.540;10.224;2024-03-22T00:15:43;13.90;;;9.77;;
5491;SDS011;2768;53.540;10.224;2024-03-22T00:21:59;13.93;;;9.70;;
5491;SDS011;2768;53.540;10.224;2024-03-22T00:27:51;15.60;;;10.43;;
5491;SDS011;2768;53.540;10.224;2024-03-22T00:33:44;13.20;;;10.13;;
5491;SDS011;2768;53.540;10.224;2024-03-22T00:39:36;13.33;;;10.23;;
5491;SDS011;2768;53.540;10.224;2024-03-22T00:45:28;14.77;;;10.80;;
5491;SDS011;2768;53.540;10.224;2024-03-22T00:51:20;12.90;;;10.90;;
5491;SDS011;2768;53.540;10.224;2024-03-22T00:57:13;13.20;;;11.17;;
5491;SDS011;2768;53.540;10.224;2024-03-22T01:03:05;19.83;;;12.17;;
5491;SDS011;2768;53.540;10.224;2024-03-22T01:08:57;14.37;;;10.80;;
5491;SDS011;2768;53.540;10.224;2024-03-22T01:14:49;14.47;;;11.17;;
5491;SDS011;2768;53.540;10.224;2024-03-22T01:20:41;15.13;;;11.43;;
5491;SDS011;2768;53.540;10.224;2024-03-22T01:26:34;18.03;;;13.00;;
5491;SDS011;2768;53.540;10.224;2024-03-22T01:32:26;16.27;;;12.50;;
5491;SDS011;2768;53.540;10.224;2024-03-22T01:38:19;15.03;;;12.27;;
5491;SDS011;2768;53.540;10.224;2024-03-22T01:44:11;16.40;;;12.60;;
5491;SDS011;2768;53.540;10.224;2024-03-22T01:50:04;18.07;;;13.90;;
5491;SDS011;2768;53.540;10.224;2024-03-22T01:55:59;16.20;;;14.17;;
5491;SDS011;2768;53.540;10.224;2024-03-22T02:01:51;18.47;;;14.90;;
5491;SDS011;2768;53.540;10.224;2024-03-22T02:07:44;17.60;;;15.17;;
5491;SDS011;2768;53.540;10.224;2024-03-22T02:13:36;20.33;;;15.80;;
5491;SDS011;2768;53.540;10.224;2024-03-22T02:19:29;19.40;;;16.50;;
5491;SDS011;2768;53.540;10.224;2024-03-22T02:25:21;19.67;;;15.87;;
5491;SDS011;2768;53.540;10.224;2024-03-22T02:31:13;33.30;;;17.87;;
5491;SDS011;2768;53.540;10.224;2024-03-22T02:37:05;23.03;;;17.50;;
5491;SDS011;2768;53.540;10.224;2024-03-22T02:43:20;22.00;;;18.90;;
5491;SDS011;2768;53.540;10.224;2024-03-22T02:49:12;21.00;;;17.40;;
5491;SDS011;2768;53.540;10.224;2024-03-22T02:55:05;21.70;;;17.63;;
5491;SDS011;2768;53.540;10.224;2024-03-22T03:00:58;22.30;;;18.83;;
5491;SDS011;2768;53.540;10.224;2024-03-22T03:06:50;28.13;;;19.83;;
5491;SDS011;2768;53.540;10.224;2024-03-22T03:12:43;24.13;;;19.70;;
5491;SDS011;2768;53.540;10.224;2024-03-22T03:18:35;27.17;;;21.27;;
5491;SDS011;2768;53.540;10.224;2024-03-22T03:24:27;31.70;;;20.83;;
5491;SDS011;2768;53.540;10.224;2024-03-22T03:30:20;29.00;;;23.13;;
5491;SDS011;2768;53.540;10.224;2024-03-22T03:36:12;30.00;;;22.33;;
5491;SDS011;2768;53.540;10.224;2024-03-22T03:42:04;29.37;;;23.70;;
5491;SDS011;2768;53.540;10.224;2024-03-22T03:47:56;27.00;;;23.60;;
5491;SDS011;2768;53.540;10.224;2024-03-22T03:53:49;27.50;;;22.90;;
5491;SDS011;2768;53.540;10.224;2024-03-22T03:59:41;31.03;;;24.83;;
5491;SDS011;2768;53.540;10.224;2024-03-22T04:05:33;31.57;;;25.13;;
5491;SDS011;2768;53.540;10.224;2024-03-22T04:11:25;30.57;;;25.60;;
5491;SDS011;2768;53.540;10.224;2024-03-22T04:17:17;33.30;;;24.37;;
5491;SDS011;2768;53.540;10.224;2024-03-22T04:23:10;35.60;;;26.00;;
5491;SDS011;2768;53.540;10.224;2024-03-22T04:29:02;38.80;;;25.30;;
5491;SDS011;2768;53.540;10.224;2024-03-22T04:34:53;32.50;;;25.90;;
5491;SDS011;2768;53.540;10.224;2024-03-22T04:40:46;34.17;;;27.77;;
5491;SDS011;2768;53.540;10.224;2024-03-22T04:46:38;33.97;;;27.27;;
5491;SDS011;2768;53.540;10.224;2024-03-22T04:52:30;33.87;;;26.70;;
5491;SDS011;2768;53.540;10.224;2024-03-22T04:58:22;35.90;;;26.50;;
5491;SDS011;2768;53.540;10.224;2024-03-22T05:04:14;35.17;;;26.03;;
5491;SDS011;2768;53.540;10.224;2024-03-22T05:10:06;34.43;;;26.60;;
5491;SDS011;2768;53.540;10.224;2024-03-22T05:16:00;36.47;;;28.17;;
5491;SDS011;2768;53.540;10.224;2024-03-22T05:21:52;35.03;;;27.43;;
5491;SDS011;2768;53.540;10.224;2024-03-22T05:27:44;36.60;;;28.37;;
5491;SDS011;2768;53.540;10.224;2024-03-22T05:33:37;37.30;;;27.70;;
5491;SDS011;2768;53.540;10.224;2024-03-22T05:39:29;35.10;;;28.63;;
5491;SDS011;2768;53.540;10.224;2024-03-22T05:45:21;37.87;;;27.67;;
5491;SDS011;2768;53.540;10.224;2024-03-22T05:51:13;41.17;;;30.10;;
5491;SDS011;2768;53.540;10.224;2024-03-22T05:57:07;40.93;;;29.00;;
5491;SDS011;2768;53.540;10.224;2024-03-22T06:03:00;38.03;;;29.07;;
5491;SDS011;2768;53.540;10.224;2024-03-22T06:08:52;41.47;;;29.07;;
5491;SDS011;2768;53.540;10.224;2024-03-22T06:14:44;43.03;;;30.47;;
5491;SDS011;2768;53.540;10.224;2024-03-22T06:20:37;45.20;;;33.63;;
5491;SDS011;2768;53.540;10.224;2024-03-22T06:26:29;45.97;;;33.97;;
5491;SDS011;2768;53.540;10.224;2024-03-22T06:32:21;45.50;;;33.20;;
5491;SDS011;2768;53.540;10.224;2024-03-22T06:38:13;54.60;;;35.47;;
5491;SDS011;2768;53.540;10.224;2024-03-22T06:44:05;47.90;;;34.43;;
5491;SDS011;2768;53.540;10.224;2024-03-22T06:49:57;52.17;;;37.13;;
5491;SDS011;2768;53.540;10.224;2024-03-22T06:55:49;47.77;;;34.57;;
5491;SDS011;2768;53.540;10.224;2024-03-22T07:01:41;52.90;;;37.57;;
5491;SDS011;2768;53.540;10.224;2024-03-22T07:07:33;51.70;;;35.83;;
5491;SDS011;2768;53.540;10.224;2024-03-22T07:13:26;48.77;;;36.07;;
5491;SDS011;2768;53.540;10.224;2024-03-22T07:19:18;47.30;;;36.13;;
5491;SDS011;2768;53.540;10.224;2024-03-22T07:25:11;51.30;;;35.87;;
5491;SDS011;2768;53.540;10.224;2024-03-22T07:31:04;54.07;;;38.07;;
5491;SDS011;2768;53.540;10.224;2024-03-22T07:36:56;53.90;;;37.60;;
5491;SDS011;2768;53.540;10.224;2024-03-22T07:42:48;50.20;;;37.33;;
5491;SDS011;2768;53.540;10.224;2024-03-22T07:48:40;52.60;;;38.60;;
5491;SDS011;2768;53.540;10.224;2024-03-22T07:54:32;54.67;;;37.70;;
5491;SDS011;2768;53.540;10.224;2024-03-22T08:00:24;55.87;;;38.47;;
5491;SDS011;2768;53.540;10.224;2024-03-22T08:06:16;56.50;;;39.30;;
5491;SDS011;2768;53.540;10.224;2024-03-22T08:12:09;53.57;;;38.93;;
5491;SDS011;2768;53.540;10.224;2024-03-22T08:18:00;60.77;;;39.63;;
5491;SDS011;2768;53.540;10.224;2024-03-22T08:23:53;52.63;;;38.07;;
5491;SDS011;2768;53.540;10.224;2024-03-22T08:29:45;55.77;;;39.27;;
5491;SDS011;2768;53.540;10.224;2024-03-22T08:35:37;61.67;;;41.77;;
5491;SDS011;2768;53.540;10.224;2024-03-22T08:41:29;55.17;;;37.13;;
5491;SDS011;2768;53.540;10.224;2024-03-22T08:47:21;58.20;;;40.20;;
5491;SDS011;2768;53.540;10.224;2024-03-22T08:53:14;57.57;;;39.20;;
5491;SDS011;2768;53.540;10.224;2024-03-22T08:59:06;53.50;;;37.20;;
5491;SDS011;2768;53.540;10.224;2024-03-22T09:04:58;55.03;;;39.47;;
5491;SDS011;2768;53.540;10.224;2024-03-22T09:10:50;60.17;;;40.70;;
5491;SDS011;2768;53.540;10.224;2024-03-22T09:16:42;58.03;;;39.27;;
5491;SDS011;2768;53.540;10.224;2024-03-22T09:22:34;63.73;;;39.90;;
5491;SDS011;2768;53.540;10.224;2024-03-22T09:28:26;56.70;;;36.90;;
5491;SDS011;2768;53.540;10.224;2024-03-22T09:34:19;56.10;;;38.50;;
5491;SDS011;2768;53.540;10.224;2024-03-22T09:40:11;50.80;;;33.17;;
5491;SDS011;2768;53.540;10.224;2024-03-22T09:46:04;51.30;;;35.07;;
5491;SDS011;2768;53.540;10.224;2024-03-22T09:51:58;51.50;;;33.00;;
5491;SDS011;2768;53.540;10.224;2024-03-22T09:57:50;53.00;;;35.40;;
5491;SDS011;2768;53.540;10.224;2024-03-22T10:03:44;54.47;;;35.07;;
5491;SDS011;2768;53.540;10.224;2024-03-22T10:09:36;56.40;;;34.83;;
5491;SDS011;2768;53.540;10.224;2024-03-22T10:15:28;51.00;;;34.90;;
5491;SDS011;2768;53.540;10.224;2024-03-22T10:21:21;52.53;;;33.50;;
5491;SDS011;2768;53.540;10.224;2024-03-22T10:27:13;48.80;;;33.10;;
5491;SDS011;2768;53.540;10.224;2024-03-22T10:33:05;51.80;;;33.60;;
5491;SDS011;2768;53.540;10.224;2024-03-22T10:38:58;46.37;;;32.20;;
5491;SDS011;2768;53.540;10.224;2024-03-22T10:44:51;45.00;;;32.23;;
5491;SDS011;2768;53.540;10.224;2024-03-22T10:50:44;49.50;;;33.00;;
5491;SDS011;2768;53.540;10.224;2024-03-22T10:56:36;47.47;;;30.70;;
5491;SDS011;2768;53.540;10.224;2024-03-22T11:02:29;44.53;;;28.00;;
5491;SDS011;2768;53.540;10.224;2024-03-22T11:08:24;36.70;;;26.47;;
5491;SDS011;2768;53.540;10.224;2024-03-22T11:14:21;32.30;;;22.87;;
5491;SDS011;2768;53.540;10.224;2024-03-22T11:20:15;34.00;;;23.53;;
5491;SDS011;2768;53.540;10.224;2024-03-22T11:26:07;38.43;;;24.90;;
5491;SDS011;2768;53.540;10.224;2024-03-22T11:32:00;24.73;;;19.37;;
5491;SDS011;2768;53.540;10.224;2024-03-22T11:37:53;35.87;;;25.70;;
5491;SDS011;2768;53.540;10.224;2024-03-22T11:43:46;34.13;;;23.10;;
5491;SDS011;2768;53.540;10.224;2024-03-22T11:49:39;30.00;;;19.20;;
5491;SDS011;2768;53.540;10.224;2024-03-22T11:55:32;28.50;;;21.30;;
5491;SDS011;2768;53.540;10.224;2024-03-22T12:01:24;26.10;;;20.87;;
5491;SDS011;2768;53.540;10.224;2024-03-22T12:07:17;27.50;;;20.17;;
5491;SDS011;2768;53.540;10.224;2024-03-22T12:13:09;24.00;;;19.00;;
5491;SDS011;2768;53.540;10.224;2024-03-22T12:19:01;24.50;;;16.93;;
5491;SDS011;2768;53.540;10.224;2024-03-22T12:24:54;24.43;;;18.00;;
5491;SDS011;2768;53.540;10.224;2024-03-22T12:30:46;20.13;;;16.13;;
5491;SDS011;2768;53.540;10.224;2024-03-22T12:36:39;24.00;;;16.77;;
5491;SDS011;2768;53.540;10.224;2024-03-22T12:42:31;20.27;;;15.10;;
5491;SDS011;2768;53.540;10.224;2024-03-22T12:48:23;16.50;;;13.17;;
5491;SDS011;2768;53.540;10.224;2024-03-22T12:54:16;18.10;;;14.17;;
5491;SDS011;2768;53.540;10.224;2024-03-22T13:00:09;18.43;;;16.00;;
5491;SDS011;2768;53.540;10.224;2024-03-22T13:06:05;19.07;;;17.07;;
5491;SDS011;2768;53.540;10.224;2024-03-22T13:11:57;21.07;;;16.43;;
5491;SDS011;2768;53.540;10.224;2024-03-22T13:17:49;15.57;;;13.23;;
5491;SDS011;2768;53.540;10.224;2024-03-22T13:23:42;13.33;;;11.83;;
5491;SDS011;2768;53.540;10.224;2024-03-22T13:29:34;12.10;;;9.63;;
5491;SDS011;2768;53.540;10.224;2024-03-22T13:35:26;9.93;;;7.73;;
5491;SDS011;2768;53.540;10.224;2024-03-22T13:41:18;9.30;;;7.67;;
5491;SDS011;2768;53.540;10.224;2024-03-22T13:47:10;11.50;;;8.50;;
5491;SDS011;2768;53.540;10.224;2024-03-22T13:53:02;9.80;;;8.80;;
5491;SDS011;2768;53.540;10.224;2024-03-22T13:58:55;8.37;;;7.57;;
5491;SDS011;2768;53.540;10.224;2024-03-22T14:04:46;4.83;;;4.43;;
5491;SDS011;2768;53.540;10.224;2024-03-22T14:10:38;4.53;;;3.57;;
5491;SDS011;2768;53.540;10.224;2024-03-22T14:16:30;4.23;;;3.83;;
5491;SDS011;2768;53.540;10.224;2024-03-22T14:22:22;4.07;;;3.77;;
5491;SDS011;2768;53.540;10.224;2024-03-22T14:28:15;3.40;;;3.20;;
5491;SDS011;2768;53.540;10.224;2024-03-22T14:34:08;4.23;;;3.83;;
5491;SDS011;2768;53.540;10.224;2024-03-22T14:40:00;3.63;;;3.33;;
5491;SDS011;2768;53.540;10.224;2024-03-22T14:45:55;3.00;;;2.80;;
5491;SDS011;2768;53.540;10.224;2024-03-22T14:51:47;2.63;;;2.43;;
5491;SDS011;2768;53.540;10.224;2024-03-22T14:57:39;3.30;;;2.50;;
5491;SDS011;2768;53.540;10.224;2024-03-22T15:03:31;7.50;;;2.60;;
5491;SDS011;2768;53.540;10.224;2024-03-22T15:09:23;10.53;;;3.30;;
5491;SDS011;2768;53.540;10.224;2024-03-22T15:15:16;10.23;;;2.73;;
5491;SDS011;2768;53.540;10.224;2024-03-22T15:21:08;12.57;;;3.70;;
5491;SDS011;2768;53.540;10.224;2024-03-22T15:27:00;12.53;;;4.20;;
5491;SDS011;2768;53.540;10.224;2024-03-22T15:32:53;12.20;;;4.07;;
5491;SDS011;2768;53.540;10.224;2024-03-22T15:38:45;15.43;;;3.97;;
5491;SDS011;2768;53.540;10.224;2024-03-22T15:44:38;13.53;;;4.37;;
5491;SDS011;2768;53.540;10.224;2024-03-22T15:50:30;16.80;;;4.47;;
5491;SDS011;2768;53.540;10.224;2024-03-22T15:56:22;15.70;;;3.60;;
5491;SDS011;2768;53.540;10.224;2024-03-22T16:02:14;15.70;;;4.10;;
5491;SDS011;2768;53.540;10.224;2024-03-22T16:08:06;12.73;;;3.43;;
5491;SDS011;2768;53.540;10.224;2024-03-22T16:13:58;20.60;;;5.40;;
5491;SDS011;2768;53.540;10.224;2024-03-22T16:19:50;13.90;;;3.20;;
5491;SDS011;2768;53.540;10.224;2024-03-22T16:25:43;15.37;;;4.73;;
5491;SDS011;2768;53.540;10.224;2024-03-22T16:31:35;16.20;;;3.63;;
5491;SDS011;2768;53.540;10.224;2024-03-22T16:37:27;12.20;;;3.40;;
5491;SDS011;2768;53.540;10.224;2024-03-22T16:43:19;21.03;;;6.30;;
5491;SDS011;2768;53.540;10.224;2024-03-22T16:49:11;14.53;;;4.80;;
5491;SDS011;2768;53.540;10.224;2024-03-22T16:55:03;21.63;;;4.80;;
5491;SDS011;2768;53.540;10.224;2024-03-22T17:00:55;11.43;;;3.73;;
5491;SDS011;2768;53.540;10.224;2024-03-22T17:06:53;20.07;;;4.70;;
5491;SDS011;2768;53.540;10.224;2024-03-22T17:12:45;13.63;;;4.40;;
5491;SDS011;2768;53.540;10.224;2024-03-22T17:18:37;19.13;;;4.27;;
5491;SDS011;2768;53.540;10.224;2024-03-22T17:24:30;14.13;;;3.83;;
5491;SDS011;2768;53.540;10.224;2024-03-22T17:30:22;13.10;;;4.80;;
5491;SDS011;2768;53.540;10.224;2024-03-22T17:36:14;20.67;;;5.67;;
5491;SDS011;2768;53.540;10.224;2024-03-22T17:42:06;18.40;;;4.97;;
5491;SDS011;2768;53.540;10.224;2024-03-22T17:47:58;20.27;;;6.07;;
5491;SDS011;2768;53.540;10.224;2024-03-22T17:53:50;18.87;;;4.43;;
5491;SDS011;2768;53.540;10.224;2024-03-22T17:59:43;23.50;;;5.00;;
5491;SDS011;2768;53.540;10.224;2024-03-22T18:05:36;23.23;;;5.30;;
5491;SDS011;2768;53.540;10.224;2024-03-22T18:11:29;20.00;;;6.03;;
5491;SDS011;2768;53.540;10.224;2024-03-22T18:17:21;12.93;;;4.90;;
5491;SDS011;2768;53.540;10.224;2024-03-22T18:23:14;21.60;;;5.17;;
5491;SDS011;2768;53.540;10.224;2024-03-22T18:29:08;17.87;;;5.17;;
5491;SDS011;2768;53.540;10.224;2024-03-22T18:35:00;18.37;;;5.90;;
5491;SDS011;2768;53.540;10.224;2024-03-22T18:40:52;21.60;;;4.97;;
5491;SDS011;2768;53.540;10.224;2024-03-22T18:46:44;21.50;;;5.07;;
5491;SDS011;2768;53.540;10.224;2024-03-22T18:52:37;20.93;;;6.20;;
5491;SDS011;2768;53.540;10.224;2024-03-22T18:58:29;18.63;;;6.40;;
5491;SDS011;2768;53.540;10.224;2024-03-22T19:04:21;17.63;;;6.63;;
5491;SDS011;2768;53.540;10.224;2024-03-22T19:10:13;17.47;;;6.40;;
5491;SDS011;2768;53.540;10.224;2024-03-22T19:16:05;26.40;;;6.57;;
5491;SDS011;2768;53.540;10.224;2024-03-22T19:21:57;19.80;;;7.40;;
5491;SDS011;2768;53.540;10.224;2024-03-22T19:27:49;22.87;;;6.10;;
5491;SDS011;2768;53.540;10.224;2024-03-22T19:33:42;16.50;;;5.63;;
5491;SDS011;2768;53.540;10.224;2024-03-22T19:39:37;14.27;;;4.63;;
5491;SDS011;2768;53.540;10.224;2024-03-22T19:45:29;27.40;;;6.50;;
5491;SDS011;2768;53.540;10.224;2024-03-22T19:51:22;16.27;;;5.87;;
5491;SDS011;2768;53.540;10.224;2024-03-22T19:57:15;16.57;;;4.77;;
5491;SDS011;2768;53.540;10.224;2024-03-22T20:03:07;16.93;;;4.73;;
5491;SDS011;2768;53.540;10.224;2024-03-22T20:09:00;16.10;;;5.70;;
5491;SDS011;2768;53.540;10.224;2024-03-22T20:14:55;19.50;;;6.40;;
5491;SDS011;2768;53.540;10.224;2024-03-22T20:20:47;22.03;;;5.60;;
5491;SDS011;2768;53.540;10.224;2024-03-22T20:26:39;22.10;;;5.17;;
5491;SDS011;2768;53.540;10.224;2024-03-22T20:32:32;19.80;;;5.37;;
